METAR Data
IDs: Format: Raw Decoded Include TAF

Data at: 2152 UTC 01 Dec 2021

METAR for:KMIE (Muncie/Johnson Fld, IN, US)
Text:KMIE 012111Z 20007KT 10SM BKN013 OVC020 09/06 A2987 RMK AO2 T00890056
Temperature: 8.9°C ( 48°F)
Dewpoint: 5.6°C ( 42°F) [RH = 80%]
Pressure (altimeter):29.87 inches Hg (1011.6 mb)
Winds:from the SSW (200 degrees) at 8 MPH (7 knots; 3.6 m/s)
Visibility:10 or more sm (16+ km)
Ceiling:1300 feet AGL
Clouds: broken clouds at 1300 feet AGL, overcast cloud deck at 2000 feet AGL